メインページ
METAR-TAF:

METAR-TAF

空港 :

西安, 中華人民共和国

西安咸陽国際空港

緯度: 34-26N, 経度: 108-45E, 海抜: 479m

現時点の気象観測

当レポートは47分前の05:00(UTC)に作成
北東の風 12kt
気温 28°C
湿度 70%
気圧 1008 hPa
視程: 4000m
高度6000ftの雲はほとんどない
煙霧

METAR: ZLXY 200500Z 05006MPS 4000 HZ FEW060 28/22 Q1008 NOSIG

時間: 13:47 (05:47 UTC)

予報

当レポートは2時間32分前の03:15(UTC)に作成
予報は20日の 06時(UTC)から 21日の 06時(UTC)まで有効
東/北東の風 10kt
視程: 3000m
高度6000ftの千切れ雲あり
小雨
20日の 07時(UTC)から 20日の 08時(UTC)まで徐々に
西の風 8kt
視程: 2800m
小雨, 靄
20日の 06時(UTC)から 20日の 12時(UTC)まで一時的に
高度4000ftの雲はほとんどない, 積乱雲.
高度6000ftの千切れ雲あり
激しい雷雨, 雨

TAF: ZLXY 200315Z 2006/2106 06005MPS 3000 -RA BKN060 TX31/2006Z TN21/2021Z BECMG 2007/2008 27004MPS 2800 -RA BR TEMPO 2006/2012 TSRA FEW040CB BKN060

4,000以上の空港の気象観測と天気予報(METAR報とTAF報)

利用可能な観測所は地図上に黄色い丸と赤い丸で示す。

丸の上にカーソルを重ねると観測所名を参照できる。

次にクリックすると気象観測と天気予報を参照できる。

マップの切り替え:黒色「×」印の緑ボタンをクリックして拡大、「-」印の緑ボタンをクリックして縮小、緑色の三角印をクリックして隣りの地図に切り替え


METAR-TAF: